sensor_id;sensor_type;location;lat;lon;timestamp;P1;durP1;ratioP1;P2;durP2;ratioP2
10761;SDS011;5433;50.862;4.320;2022-11-03T00:02:17;10.50;;;2.45;;
10761;SDS011;5433;50.862;4.320;2022-11-03T00:04:43;8.57;;;2.38;;
10761;SDS011;5433;50.862;4.320;2022-11-03T00:07:09;9.05;;;2.20;;
10761;SDS011;5433;50.862;4.320;2022-11-03T00:09:35;6.88;;;2.40;;
10761;SDS011;5433;50.862;4.320;2022-11-03T00:12:01;10.05;;;2.35;;
10761;SDS011;5433;50.862;4.320;2022-11-03T00:14:27;11.40;;;2.63;;
10761;SDS011;5433;50.862;4.320;2022-11-03T00:16:53;9.23;;;2.45;;
10761;SDS011;5433;50.862;4.320;2022-11-03T00:19:19;10.00;;;2.33;;
10761;SDS011;5433;50.862;4.320;2022-11-03T00:21:45;8.50;;;2.33;;
10761;SDS011;5433;50.862;4.320;2022-11-03T00:24:12;10.35;;;2.45;;
10761;SDS011;5433;50.862;4.320;2022-11-03T00:26:38;6.50;;;2.03;;
10761;SDS011;5433;50.862;4.320;2022-11-03T00:29:08;7.47;;;2.15;;
10761;SDS011;5433;50.862;4.320;2022-11-03T00:31:35;7.75;;;2.25;;
10761;SDS011;5433;50.862;4.320;2022-11-03T00:34:01;6.30;;;2.00;;
10761;SDS011;5433;50.862;4.320;2022-11-03T00:36:35;10.25;;;2.38;;
10761;SDS011;5433;50.862;4.320;2022-11-03T00:39:02;9.60;;;2.30;;
10761;SDS011;5433;50.862;4.320;2022-11-03T00:41:28;8.15;;;2.17;;
10761;SDS011;5433;50.862;4.320;2022-11-03T00:43:54;10.68;;;2.30;;
10761;SDS011;5433;50.862;4.320;2022-11-03T00:46:21;9.35;;;2.30;;
10761;SDS011;5433;50.862;4.320;2022-11-03T00:48:48;9.43;;;2.42;;
10761;SDS011;5433;50.862;4.320;2022-11-03T00:51:15;8.98;;;2.10;;
10761;SDS011;5433;50.862;4.320;2022-11-03T00:53:42;5.75;;;1.98;;
10761;SDS011;5433;50.862;4.320;2022-11-03T00:56:10;7.47;;;2.20;;
10761;SDS011;5433;50.862;4.320;2022-11-03T00:58:36;10.60;;;2.60;;
10761;SDS011;5433;50.862;4.320;2022-11-03T01:01:03;7.80;;;2.30;;
10761;SDS011;5433;50.862;4.320;2022-11-03T01:03:31;10.13;;;2.40;;
10761;SDS011;5433;50.862;4.320;2022-11-03T01:05:58;7.57;;;2.00;;
10761;SDS011;5433;50.862;4.320;2022-11-03T01:08:42;10.60;;;2.58;;
10761;SDS011;5433;50.862;4.320;2022-11-03T01:11:16;10.88;;;1.90;;
10761;SDS011;5433;50.862;4.320;2022-11-03T01:14:01;7.68;;;2.28;;
10761;SDS011;5433;50.862;4.320;2022-11-03T01:16:27;7.78;;;2.05;;
10761;SDS011;5433;50.862;4.320;2022-11-03T01:18:54;9.02;;;2.10;;
10761;SDS011;5433;50.862;4.320;2022-11-03T01:21:20;6.60;;;2.03;;
10761;SDS011;5433;50.862;4.320;2022-11-03T01:23:46;9.40;;;2.35;;
10761;SDS011;5433;50.862;4.320;2022-11-03T01:26:12;9.55;;;2.20;;
10761;SDS011;5433;50.862;4.320;2022-11-03T01:28:40;7.75;;;1.92;;
10761;SDS011;5433;50.862;4.320;2022-11-03T01:31:07;8.57;;;2.45;;
10761;SDS011;5433;50.862;4.320;2022-11-03T01:33:33;7.13;;;2.30;;
10761;SDS011;5433;50.862;4.320;2022-11-03T01:35:59;7.80;;;2.35;;
10761;SDS011;5433;50.862;4.320;2022-11-03T01:38:25;8.23;;;2.30;;
10761;SDS011;5433;50.862;4.320;2022-11-03T01:40:51;10.45;;;2.40;;
10761;SDS011;5433;50.862;4.320;2022-11-03T01:43:22;10.73;;;2.72;;
10761;SDS011;5433;50.862;4.320;2022-11-03T01:45:52;7.90;;;2.15;;
10761;SDS011;5433;50.862;4.320;2022-11-03T01:48:20;6.97;;;2.17;;
10761;SDS011;5433;50.862;4.320;2022-11-03T01:50:47;10.75;;;2.30;;
10761;SDS011;5433;50.862;4.320;2022-11-03T01:53:13;8.10;;;2.30;;
10761;SDS011;5433;50.862;4.320;2022-11-03T01:55:41;9.90;;;2.67;;
10761;SDS011;5433;50.862;4.320;2022-11-03T01:58:27;9.10;;;2.28;;
10761;SDS011;5433;50.862;4.320;2022-11-03T02:00:55;7.10;;;2.50;;
10761;SDS011;5433;50.862;4.320;2022-11-03T02:03:23;7.47;;;2.10;;
10761;SDS011;5433;50.862;4.320;2022-11-03T02:05:50;13.63;;;2.38;;
10761;SDS011;5433;50.862;4.320;2022-11-03T02:08:24;9.18;;;2.33;;
10761;SDS011;5433;50.862;4.320;2022-11-03T02:10:52;5.85;;;2.10;;
10761;SDS011;5433;50.862;4.320;2022-11-03T02:13:22;8.20;;;2.22;;
10761;SDS011;5433;50.862;4.320;2022-11-03T02:15:50;7.03;;;2.30;;
10761;SDS011;5433;50.862;4.320;2022-11-03T02:23:58;5.43;;;1.90;;
10761;SDS011;5433;50.862;4.320;2022-11-03T02:26:26;4.75;;;1.83;;
10761;SDS011;5433;50.862;4.320;2022-11-03T02:28:52;5.88;;;1.90;;
10761;SDS011;5433;50.862;4.320;2022-11-03T02:31:24;8.20;;;2.42;;
10761;SDS011;5433;50.862;4.320;2022-11-03T02:38:55;7.55;;;1.98;;
10761;SDS011;5433;50.862;4.320;2022-11-03T02:41:22;7.00;;;2.08;;
10761;SDS011;5433;50.862;4.320;2022-11-03T02:43:48;9.88;;;2.40;;
10761;SDS011;5433;50.862;4.320;2022-11-03T02:46:15;7.97;;;2.20;;
10761;SDS011;5433;50.862;4.320;2022-11-03T02:48:41;7.55;;;2.17;;
10761;SDS011;5433;50.862;4.320;2022-11-03T02:51:08;6.40;;;2.10;;
10761;SDS011;5433;50.862;4.320;2022-11-03T02:53:38;8.90;;;2.25;;
10761;SDS011;5433;50.862;4.320;2022-11-03T02:56:12;7.25;;;2.13;;
10761;SDS011;5433;50.862;4.320;2022-11-03T02:58:50;8.35;;;2.38;;
10761;SDS011;5433;50.862;4.320;2022-11-03T03:01:21;7.32;;;2.00;;
10761;SDS011;5433;50.862;4.320;2022-11-03T03:03:50;6.90;;;2.03;;
10761;SDS011;5433;50.862;4.320;2022-11-03T03:06:19;6.25;;;1.90;;
10761;SDS011;5433;50.862;4.320;2022-11-03T03:08:47;8.60;;;2.08;;
10761;SDS011;5433;50.862;4.320;2022-11-03T03:11:15;10.15;;;2.40;;
10761;SDS011;5433;50.862;4.320;2022-11-03T03:13:41;7.85;;;2.20;;
10761;SDS011;5433;50.862;4.320;2022-11-03T03:16:22;11.10;;;2.30;;
10761;SDS011;5433;50.862;4.320;2022-11-03T03:19:00;8.57;;;2.00;;
10761;SDS011;5433;50.862;4.320;2022-11-03T03:21:32;11.15;;;2.33;;
10761;SDS011;5433;50.862;4.320;2022-11-03T03:24:12;8.15;;;2.28;;
10761;SDS011;5433;50.862;4.320;2022-11-03T03:26:43;9.02;;;2.30;;
10761;SDS011;5433;50.862;4.320;2022-11-03T03:29:13;7.88;;;2.10;;
10761;SDS011;5433;50.862;4.320;2022-11-03T03:31:40;8.40;;;2.28;;
10761;SDS011;5433;50.862;4.320;2022-11-03T03:34:07;10.77;;;2.38;;
10761;SDS011;5433;50.862;4.320;2022-11-03T03:36:34;5.93;;;2.10;;
10761;SDS011;5433;50.862;4.320;2022-11-03T03:39:02;10.23;;;2.15;;
10761;SDS011;5433;50.862;4.320;2022-11-03T03:41:29;7.35;;;2.15;;
10761;SDS011;5433;50.862;4.320;2022-11-03T03:43:57;6.32;;;2.08;;
10761;SDS011;5433;50.862;4.320;2022-11-03T03:46:27;6.45;;;2.00;;
10761;SDS011;5433;50.862;4.320;2022-11-03T03:48:55;8.73;;;2.13;;
10761;SDS011;5433;50.862;4.320;2022-11-03T03:51:21;7.07;;;2.10;;
10761;SDS011;5433;50.862;4.320;2022-11-03T03:53:49;8.27;;;2.10;;
10761;SDS011;5433;50.862;4.320;2022-11-03T03:56:17;8.05;;;2.15;;
10761;SDS011;5433;50.862;4.320;2022-11-03T03:58:43;10.73;;;2.40;;
10761;SDS011;5433;50.862;4.320;2022-11-03T04:01:10;7.07;;;2.50;;
10761;SDS011;5433;50.862;4.320;2022-11-03T04:03:36;8.32;;;2.05;;
10761;SDS011;5433;50.862;4.320;2022-11-03T04:06:02;8.45;;;2.20;;
10761;SDS011;5433;50.862;4.320;2022-11-03T04:08:28;7.10;;;1.90;;
10761;SDS011;5433;50.862;4.320;2022-11-03T04:10:54;4.80;;;2.00;;
10761;SDS011;5433;50.862;4.320;2022-11-03T04:13:39;8.95;;;2.10;;
10761;SDS011;5433;50.862;4.320;2022-11-03T04:16:24;8.82;;;2.30;;
10761;SDS011;5433;50.862;4.320;2022-11-03T04:19:12;8.93;;;2.30;;
10761;SDS011;5433;50.862;4.320;2022-11-03T04:21:56;6.60;;;1.92;;
10761;SDS011;5433;50.862;4.320;2022-11-03T04:24:44;5.97;;;1.95;;
10761;SDS011;5433;50.862;4.320;2022-11-03T04:27:24;8.20;;;2.05;;
10761;SDS011;5433;50.862;4.320;2022-11-03T04:29:51;8.38;;;2.20;;
10761;SDS011;5433;50.862;4.320;2022-11-03T04:32:17;9.70;;;2.10;;
10761;SDS011;5433;50.862;4.320;2022-11-03T04:34:44;10.18;;;2.40;;
10761;SDS011;5433;50.862;4.320;2022-11-03T04:40:15;5.72;;;1.90;;
10761;SDS011;5433;50.862;4.320;2022-11-03T04:42:42;9.38;;;2.40;;
10761;SDS011;5433;50.862;4.320;2022-11-03T04:45:13;7.30;;;2.20;;
10761;SDS011;5433;50.862;4.320;2022-11-03T04:47:42;12.75;;;2.35;;
10761;SDS011;5433;50.862;4.320;2022-11-03T04:50:12;7.88;;;2.20;;
10761;SDS011;5433;50.862;4.320;2022-11-03T04:52:39;8.80;;;2.25;;
10761;SDS011;5433;50.862;4.320;2022-11-03T04:55:07;7.47;;;2.25;;
10761;SDS011;5433;50.862;4.320;2022-11-03T04:57:35;9.07;;;2.30;;
10761;SDS011;5433;50.862;4.320;2022-11-03T05:00:01;8.52;;;2.08;;
10761;SDS011;5433;50.862;4.320;2022-11-03T05:02:27;8.95;;;2.10;;
10761;SDS011;5433;50.862;4.320;2022-11-03T05:04:54;6.55;;;2.40;;
10761;SDS011;5433;50.862;4.320;2022-11-03T05:07:21;6.82;;;2.00;;
10761;SDS011;5433;50.862;4.320;2022-11-03T05:09:48;7.20;;;2.20;;
10761;SDS011;5433;50.862;4.320;2022-11-03T05:12:14;9.10;;;2.30;;
10761;SDS011;5433;50.862;4.320;2022-11-03T05:14:40;8.38;;;2.20;;
10761;SDS011;5433;50.862;4.320;2022-11-03T05:17:14;7.80;;;1.98;;
10761;SDS011;5433;50.862;4.320;2022-11-03T05:19:43;7.55;;;1.73;;
10761;SDS011;5433;50.862;4.320;2022-11-03T05:22:14;7.90;;;2.25;;
10761;SDS011;5433;50.862;4.320;2022-11-03T05:24:41;6.85;;;2.08;;
10761;SDS011;5433;50.862;4.320;2022-11-03T05:27:10;10.70;;;1.98;;
10761;SDS011;5433;50.862;4.320;2022-11-03T05:29:40;10.05;;;2.13;;
10761;SDS011;5433;50.862;4.320;2022-11-03T05:32:25;9.38;;;2.50;;
10761;SDS011;5433;50.862;4.320;2022-11-03T05:34:52;7.85;;;2.28;;
10761;SDS011;5433;50.862;4.320;2022-11-03T05:37:32;6.57;;;2.25;;
10761;SDS011;5433;50.862;4.320;2022-11-03T05:40:02;8.73;;;2.15;;
10761;SDS011;5433;50.862;4.320;2022-11-03T05:42:35;11.35;;;2.35;;
10761;SDS011;5433;50.862;4.320;2022-11-03T05:45:07;10.93;;;2.65;;
10761;SDS011;5433;50.862;4.320;2022-11-03T05:47:38;7.95;;;2.72;;
10761;SDS011;5433;50.862;4.320;2022-11-03T05:52:36;7.90;;;2.40;;
10761;SDS011;5433;50.862;4.320;2022-11-03T05:55:02;10.77;;;2.40;;
10761;SDS011;5433;50.862;4.320;2022-11-03T05:57:29;8.43;;;2.53;;
10761;SDS011;5433;50.862;4.320;2022-11-03T05:59:55;7.68;;;2.47;;
10761;SDS011;5433;50.862;4.320;2022-11-03T06:02:35;10.63;;;2.60;;
10761;SDS011;5433;50.862;4.320;2022-11-03T06:05:09;7.90;;;2.38;;
10761;SDS011;5433;50.862;4.320;2022-11-03T06:07:36;8.02;;;2.17;;
10761;SDS011;5433;50.862;4.320;2022-11-03T06:10:04;6.43;;;2.45;;
10761;SDS011;5433;50.862;4.320;2022-11-03T06:12:43;10.20;;;2.92;;
10761;SDS011;5433;50.862;4.320;2022-11-03T06:15:12;8.85;;;2.63;;
10761;SDS011;5433;50.862;4.320;2022-11-03T06:17:46;10.07;;;2.53;;
10761;SDS011;5433;50.862;4.320;2022-11-03T06:20:15;9.15;;;2.55;;
10761;SDS011;5433;50.862;4.320;2022-11-03T06:22:41;9.93;;;2.53;;
10761;SDS011;5433;50.862;4.320;2022-11-03T06:28:18;7.15;;;2.45;;
10761;SDS011;5433;50.862;4.320;2022-11-03T06:30:45;9.27;;;3.03;;
10761;SDS011;5433;50.862;4.320;2022-11-03T06:33:17;8.65;;;2.50;;
10761;SDS011;5433;50.862;4.320;2022-11-03T06:35:45;9.32;;;2.92;;
10761;SDS011;5433;50.862;4.320;2022-11-03T06:38:13;12.05;;;2.63;;
10761;SDS011;5433;50.862;4.320;2022-11-03T06:40:40;12.35;;;2.90;;
10761;SDS011;5433;50.862;4.320;2022-11-03T06:43:40;8.82;;;3.00;;
10761;SDS011;5433;50.862;4.320;2022-11-03T06:46:00;8.05;;;2.38;;
10761;SDS011;5433;50.862;4.320;2022-11-03T06:48:27;7.45;;;2.33;;
10761;SDS011;5433;50.862;4.320;2022-11-03T06:50:54;11.40;;;2.30;;
10761;SDS011;5433;50.862;4.320;2022-11-03T06:53:22;8.65;;;2.55;;
10761;SDS011;5433;50.862;4.320;2022-11-03T06:55:53;10.13;;;2.70;;
10761;SDS011;5433;50.862;4.320;2022-11-03T06:58:26;8.23;;;2.40;;
10761;SDS011;5433;50.862;4.320;2022-11-03T07:00:54;9.30;;;2.47;;
10761;SDS011;5433;50.862;4.320;2022-11-03T07:03:27;10.18;;;2.33;;
10761;SDS011;5433;50.862;4.320;2022-11-03T07:06:30;8.02;;;2.30;;
10761;SDS011;5433;50.862;4.320;2022-11-03T07:08:53;9.40;;;2.30;;
10761;SDS011;5433;50.862;4.320;2022-11-03T07:14:26;10.50;;;2.47;;
10761;SDS011;5433;50.862;4.320;2022-11-03T07:17:02;10.60;;;2.50;;
10761;SDS011;5433;50.862;4.320;2022-11-03T07:19:33;10.93;;;2.50;;
10761;SDS011;5433;50.862;4.320;2022-11-03T07:22:04;8.48;;;2.50;;
10761;SDS011;5433;50.862;4.320;2022-11-03T07:24:35;7.57;;;2.20;;
10761;SDS011;5433;50.862;4.320;2022-11-03T07:27:19;9.45;;;2.60;;
10761;SDS011;5433;50.862;4.320;2022-11-03T07:29:46;9.00;;;2.25;;
10761;SDS011;5433;50.862;4.320;2022-11-03T07:32:15;10.13;;;2.60;;
10761;SDS011;5433;50.862;4.320;2022-11-03T07:34:44;10.25;;;3.17;;
10761;SDS011;5433;50.862;4.320;2022-11-03T07:37:17;7.45;;;2.28;;
10761;SDS011;5433;50.862;4.320;2022-11-03T07:39:43;7.95;;;1.90;;
10761;SDS011;5433;50.862;4.320;2022-11-03T07:42:19;6.22;;;2.22;;
10761;SDS011;5433;50.862;4.320;2022-11-03T07:44:46;7.32;;;2.20;;
10761;SDS011;5433;50.862;4.320;2022-11-03T07:47:13;9.90;;;2.38;;
10761;SDS011;5433;50.862;4.320;2022-11-03T07:49:40;7.13;;;2.55;;
10761;SDS011;5433;50.862;4.320;2022-11-03T07:52:11;8.63;;;2.40;;
10761;SDS011;5433;50.862;4.320;2022-11-03T07:54:38;6.50;;;2.20;;
10761;SDS011;5433;50.862;4.320;2022-11-03T07:57:06;7.10;;;2.15;;
10761;SDS011;5433;50.862;4.320;2022-11-03T07:59:37;7.28;;;2.30;;
10761;SDS011;5433;50.862;4.320;2022-11-03T08:02:13;8.18;;;2.42;;
10761;SDS011;5433;50.862;4.320;2022-11-03T08:04:44;7.90;;;3.10;;
10761;SDS011;5433;50.862;4.320;2022-11-03T08:07:11;8.85;;;2.63;;
10761;SDS011;5433;50.862;4.320;2022-11-03T08:09:37;7.65;;;2.30;;
10761;SDS011;5433;50.862;4.320;2022-11-03T08:12:03;6.95;;;2.50;;
10761;SDS011;5433;50.862;4.320;2022-11-03T08:14:29;8.60;;;2.95;;
10761;SDS011;5433;50.862;4.320;2022-11-03T08:16:55;9.27;;;2.67;;
10761;SDS011;5433;50.862;4.320;2022-11-03T08:19:21;6.32;;;2.60;;
10761;SDS011;5433;50.862;4.320;2022-11-03T08:21:47;6.57;;;2.50;;
10761;SDS011;5433;50.862;4.320;2022-11-03T08:24:13;8.05;;;2.63;;
10761;SDS011;5433;50.862;4.320;2022-11-03T08:26:39;7.68;;;2.67;;
10761;SDS011;5433;50.862;4.320;2022-11-03T08:29:06;5.10;;;2.40;;
10761;SDS011;5433;50.862;4.320;2022-11-03T08:31:32;7.22;;;2.53;;
10761;SDS011;5433;50.862;4.320;2022-11-03T08:33:58;6.68;;;2.53;;
10761;SDS011;5433;50.862;4.320;2022-11-03T08:36:24;9.07;;;2.40;;
10761;SDS011;5433;50.862;4.320;2022-11-03T08:38:50;8.57;;;2.50;;
10761;SDS011;5433;50.862;4.320;2022-11-03T08:41:16;6.97;;;2.35;;
10761;SDS011;5433;50.862;4.320;2022-11-03T08:43:42;9.35;;;2.42;;
10761;SDS011;5433;50.862;4.320;2022-11-03T08:46:11;8.85;;;2.20;;
10761;SDS011;5433;50.862;4.320;2022-11-03T08:48:37;5.35;;;2.35;;
10761;SDS011;5433;50.862;4.320;2022-11-03T08:51:04;6.13;;;2.25;;
10761;SDS011;5433;50.862;4.320;2022-11-03T08:53:31;6.22;;;2.10;;
10761;SDS011;5433;50.862;4.320;2022-11-03T08:55:58;4.25;;;2.13;;
10761;SDS011;5433;50.862;4.320;2022-11-03T08:58:24;8.63;;;2.20;;
10761;SDS011;5433;50.862;4.320;2022-11-03T09:00:50;7.35;;;2.30;;
10761;SDS011;5433;50.862;4.320;2022-11-03T09:03:16;6.45;;;2.30;;
10761;SDS011;5433;50.862;4.320;2022-11-03T09:05:42;20.90;;;2.83;;
10761;SDS011;5433;50.862;4.320;2022-11-03T09:11:12;6.47;;;2.00;;
10761;SDS011;5433;50.862;4.320;2022-11-03T09:13:38;6.40;;;2.20;;
10761;SDS011;5433;50.862;4.320;2022-11-03T09:16:04;5.95;;;2.17;;
10761;SDS011;5433;50.862;4.320;2022-11-03T09:18:31;9.75;;;2.65;;
10761;SDS011;5433;50.862;4.320;2022-11-03T09:20:58;5.43;;;2.28;;
10761;SDS011;5433;50.862;4.320;2022-11-03T09:23:24;6.55;;;1.95;;
10761;SDS011;5433;50.862;4.320;2022-11-03T09:25:50;8.43;;;2.15;;
10761;SDS011;5433;50.862;4.320;2022-11-03T09:28:16;7.20;;;2.40;;
10761;SDS011;5433;50.862;4.320;2022-11-03T09:30:42;6.35;;;2.40;;
10761;SDS011;5433;50.862;4.320;2022-11-03T09:33:08;5.45;;;1.80;;
10761;SDS011;5433;50.862;4.320;2022-11-03T09:35:42;5.35;;;2.00;;
10761;SDS011;5433;50.862;4.320;2022-11-03T09:38:08;5.75;;;1.90;;
10761;SDS011;5433;50.862;4.320;2022-11-03T09:40:34;5.88;;;2.00;;
10761;SDS011;5433;50.862;4.320;2022-11-03T09:43:00;8.82;;;2.97;;
10761;SDS011;5433;50.862;4.320;2022-11-03T09:45:26;5.75;;;2.20;;
10761;SDS011;5433;50.862;4.320;2022-11-03T09:47:52;6.65;;;2.40;;
10761;SDS011;5433;50.862;4.320;2022-11-03T09:50:18;7.97;;;2.15;;
10761;SDS011;5433;50.862;4.320;2022-11-03T09:52:45;6.32;;;2.40;;
10761;SDS011;5433;50.862;4.320;2022-11-03T09:55:12;7.72;;;2.50;;
10761;SDS011;5433;50.862;4.320;2022-11-03T09:57:39;6.97;;;2.45;;
10761;SDS011;5433;50.862;4.320;2022-11-03T10:00:20;8.48;;;2.10;;
10761;SDS011;5433;50.862;4.320;2022-11-03T10:02:47;6.95;;;2.20;;
10761;SDS011;5433;50.862;4.320;2022-11-03T10:05:13;6.97;;;2.10;;
10761;SDS011;5433;50.862;4.320;2022-11-03T10:07:41;7.72;;;2.10;;
10761;SDS011;5433;50.862;4.320;2022-11-03T10:10:12;7.57;;;2.28;;
10761;SDS011;5433;50.862;4.320;2022-11-03T10:12:39;7.82;;;2.17;;
10761;SDS011;5433;50.862;4.320;2022-11-03T10:15:08;8.60;;;3.47;;
10761;SDS011;5433;50.862;4.320;2022-11-03T10:17:38;6.88;;;2.08;;
10761;SDS011;5433;50.862;4.320;2022-11-03T10:20:04;6.53;;;2.10;;
10761;SDS011;5433;50.862;4.320;2022-11-03T10:22:31;8.07;;;2.22;;
10761;SDS011;5433;50.862;4.320;2022-11-03T10:27:42;6.05;;;2.10;;
10761;SDS011;5433;50.862;4.320;2022-11-03T10:30:09;6.22;;;2.05;;
10761;SDS011;5433;50.862;4.320;2022-11-03T10:32:35;6.40;;;2.03;;
10761;SDS011;5433;50.862;4.320;2022-11-03T10:35:02;4.72;;;1.77;;
10761;SDS011;5433;50.862;4.320;2022-11-03T10:37:29;5.38;;;2.05;;
10761;SDS011;5433;50.862;4.320;2022-11-03T10:39:55;6.63;;;2.17;;
10761;SDS011;5433;50.862;4.320;2022-11-03T10:42:34;5.72;;;2.00;;
10761;SDS011;5433;50.862;4.320;2022-11-03T10:45:13;7.00;;;2.03;;
10761;SDS011;5433;50.862;4.320;2022-11-03T10:47:41;6.63;;;2.10;;
10761;SDS011;5433;50.862;4.320;2022-11-03T10:50:23;3.10;;;1.75;;
10761;SDS011;5433;50.862;4.320;2022-11-03T10:52:50;3.78;;;1.67;;
10761;SDS011;5433;50.862;4.320;2022-11-03T10:55:17;4.03;;;1.90;;
10761;SDS011;5433;50.862;4.320;2022-11-03T10:57:43;5.50;;;2.10;;
10761;SDS011;5433;50.862;4.320;2022-11-03T11:00:14;6.15;;;2.00;;
10761;SDS011;5433;50.862;4.320;2022-11-03T11:02:41;6.82;;;1.95;;
10761;SDS011;5433;50.862;4.320;2022-11-03T11:05:15;5.47;;;1.90;;
10761;SDS011;5433;50.862;4.320;2022-11-03T11:07:43;5.50;;;1.85;;
10761;SDS011;5433;50.862;4.320;2022-11-03T11:10:16;4.82;;;1.95;;
10761;SDS011;5433;50.862;4.320;2022-11-03T11:13:11;6.28;;;2.10;;
10761;SDS011;5433;50.862;4.320;2022-11-03T11:15:49;6.35;;;1.83;;
10761;SDS011;5433;50.862;4.320;2022-11-03T11:20:54;5.15;;;1.70;;
10761;SDS011;5433;50.862;4.320;2022-11-03T11:29:32;2.53;;;1.70;;
10761;SDS011;5433;50.862;4.320;2022-11-03T11:31:32;5.40;;;2.00;;
10761;SDS011;5433;50.862;4.320;2022-11-03T11:36:34;4.88;;;1.90;;
10761;SDS011;5433;50.862;4.320;2022-11-03T11:39:01;7.60;;;1.98;;
10761;SDS011;5433;50.862;4.320;2022-11-03T11:46:57;3.60;;;1.40;;
10761;SDS011;5433;50.862;4.320;2022-11-03T11:49:23;3.95;;;1.60;;
10761;SDS011;5433;50.862;4.320;2022-11-03T11:51:49;3.78;;;1.60;;
10761;SDS011;5433;50.862;4.320;2022-11-03T11:54:16;6.70;;;1.70;;
10761;SDS011;5433;50.862;4.320;2022-11-03T11:56:44;3.95;;;1.52;;
10761;SDS011;5433;50.862;4.320;2022-11-03T11:59:14;6.05;;;1.55;;
10761;SDS011;5433;50.862;4.320;2022-11-03T12:01:41;4.20;;;1.70;;
10761;SDS011;5433;50.862;4.320;2022-11-03T12:04:17;8.18;;;1.88;;
10761;SDS011;5433;50.862;4.320;2022-11-03T12:06:43;3.63;;;1.60;;
10761;SDS011;5433;50.862;4.320;2022-11-03T12:11:43;3.75;;;1.60;;
10761;SDS011;5433;50.862;4.320;2022-11-03T12:16:52;5.95;;;1.75;;
10761;SDS011;5433;50.862;4.320;2022-11-03T12:19:31;5.53;;;1.80;;
10761;SDS011;5433;50.862;4.320;2022-11-03T12:22:01;3.80;;;1.70;;
10761;SDS011;5433;50.862;4.320;2022-11-03T12:26:57;4.50;;;1.88;;
10761;SDS011;5433;50.862;4.320;2022-11-03T12:29:23;3.53;;;1.50;;
10761;SDS011;5433;50.862;4.320;2022-11-03T12:31:50;4.22;;;1.70;;
10761;SDS011;5433;50.862;4.320;2022-11-03T12:34:17;2.88;;;1.58;;
10761;SDS011;5433;50.862;4.320;2022-11-03T12:36:43;5.88;;;1.52;;
10761;SDS011;5433;50.862;4.320;2022-11-03T12:39:10;4.38;;;1.70;;
10761;SDS011;5433;50.862;4.320;2022-11-03T12:41:36;4.65;;;1.90;;
10761;SDS011;5433;50.862;4.320;2022-11-03T12:44:02;3.72;;;1.55;;
10761;SDS011;5433;50.862;4.320;2022-11-03T12:46:29;5.15;;;1.90;;
10761;SDS011;5433;50.862;4.320;2022-11-03T12:48:55;4.03;;;1.70;;
10761;SDS011;5433;50.862;4.320;2022-11-03T12:51:22;6.55;;;1.77;;
10761;SDS011;5433;50.862;4.320;2022-11-03T12:53:48;3.33;;;1.80;;
10761;SDS011;5433;50.862;4.320;2022-11-03T12:56:15;5.53;;;1.90;;
10761;SDS011;5433;50.862;4.320;2022-11-03T12:58:44;5.70;;;2.05;;
10761;SDS011;5433;50.862;4.320;2022-11-03T13:01:10;4.75;;;1.60;;
10761;SDS011;5433;50.862;4.320;2022-11-03T13:03:36;2.97;;;1.90;;
10761;SDS011;5433;50.862;4.320;2022-11-03T13:06:03;4.68;;;1.85;;
10761;SDS011;5433;50.862;4.320;2022-11-03T13:08:33;3.63;;;1.83;;
10761;SDS011;5433;50.862;4.320;2022-11-03T13:10:59;3.90;;;2.10;;
10761;SDS011;5433;50.862;4.320;2022-11-03T13:13:26;2.75;;;1.90;;
10761;SDS011;5433;50.862;4.320;2022-11-03T13:15:52;6.43;;;2.10;;
10761;SDS011;5433;50.862;4.320;2022-11-03T13:18:18;3.28;;;2.00;;
10761;SDS011;5433;50.862;4.320;2022-11-03T13:20:44;4.90;;;2.30;;
10761;SDS011;5433;50.862;4.320;2022-11-03T13:23:10;4.35;;;1.90;;
10761;SDS011;5433;50.862;4.320;2022-11-03T13:25:37;5.13;;;1.90;;
10761;SDS011;5433;50.862;4.320;2022-11-03T13:28:03;4.32;;;1.98;;
10761;SDS011;5433;50.862;4.320;2022-11-03T13:30:29;4.95;;;2.03;;
10761;SDS011;5433;50.862;4.320;2022-11-03T13:32:57;4.25;;;1.80;;
10761;SDS011;5433;50.862;4.320;2022-11-03T13:35:23;2.00;;;1.65;;
10761;SDS011;5433;50.862;4.320;2022-11-03T13:37:49;4.07;;;2.05;;
10761;SDS011;5433;50.862;4.320;2022-11-03T13:40:15;5.00;;;2.20;;
10761;SDS011;5433;50.862;4.320;2022-11-03T13:42:41;4.00;;;2.03;;
10761;SDS011;5433;50.862;4.320;2022-11-03T13:45:08;7.53;;;2.30;;
10761;SDS011;5433;50.862;4.320;2022-11-03T13:47:34;4.85;;;2.05;;
10761;SDS011;5433;50.862;4.320;2022-11-03T13:50:00;4.05;;;1.83;;
10761;SDS011;5433;50.862;4.320;2022-11-03T13:52:26;3.85;;;1.92;;
10761;SDS011;5433;50.862;4.320;2022-11-03T13:54:52;3.85;;;2.10;;
10761;SDS011;5433;50.862;4.320;2022-11-03T13:57:19;5.47;;;2.13;;
10761;SDS011;5433;50.862;4.320;2022-11-03T13:59:46;5.05;;;2.05;;
10761;SDS011;5433;50.862;4.320;2022-11-03T14:02:12;4.57;;;2.30;;
10761;SDS011;5433;50.862;4.320;2022-11-03T14:04:38;3.40;;;1.90;;
10761;SDS011;5433;50.862;4.320;2022-11-03T14:07:05;5.53;;;2.15;;
10761;SDS011;5433;50.862;4.320;2022-11-03T14:09:31;5.00;;;2.00;;
10761;SDS011;5433;50.862;4.320;2022-11-03T14:11:59;5.15;;;2.00;;
10761;SDS011;5433;50.862;4.320;2022-11-03T14:14:43;5.80;;;2.40;;
10761;SDS011;5433;50.862;4.320;2022-11-03T14:17:09;3.53;;;2.40;;
10761;SDS011;5433;50.862;4.320;2022-11-03T14:19:36;3.67;;;2.05;;
10761;SDS011;5433;50.862;4.320;2022-11-03T14:22:02;4.00;;;2.15;;
10761;SDS011;5433;50.862;4.320;2022-11-03T14:24:28;4.47;;;2.13;;
10761;SDS011;5433;50.862;4.320;2022-11-03T14:26:54;4.05;;;2.20;;
10761;SDS011;5433;50.862;4.320;2022-11-03T14:29:20;4.00;;;2.17;;
10761;SDS011;5433;50.862;4.320;2022-11-03T14:31:46;7.85;;;2.10;;
10761;SDS011;5433;50.862;4.320;2022-11-03T14:34:12;4.95;;;2.15;;
10761;SDS011;5433;50.862;4.320;2022-11-03T14:36:38;4.88;;;2.10;;
10761;SDS011;5433;50.862;4.320;2022-11-03T14:39:04;3.55;;;1.90;;
10761;SDS011;5433;50.862;4.320;2022-11-03T14:41:30;3.45;;;2.20;;
10761;SDS011;5433;50.862;4.320;2022-11-03T14:44:15;4.47;;;2.15;;
10761;SDS011;5433;50.862;4.320;2022-11-03T14:46:41;3.92;;;2.15;;
10761;SDS011;5433;50.862;4.320;2022-11-03T14:49:07;3.03;;;2.10;;
10761;SDS011;5433;50.862;4.320;2022-11-03T14:51:33;4.72;;;2.22;;
10761;SDS011;5433;50.862;4.320;2022-11-03T14:53:59;3.35;;;1.98;;
10761;SDS011;5433;50.862;4.320;2022-11-03T14:56:25;4.43;;;2.10;;
10761;SDS011;5433;50.862;4.320;2022-11-03T14:58:51;5.53;;;2.30;;
10761;SDS011;5433;50.862;4.320;2022-11-03T15:01:17;6.20;;;2.20;;
10761;SDS011;5433;50.862;4.320;2022-11-03T15:03:44;4.65;;;2.10;;
10761;SDS011;5433;50.862;4.320;2022-11-03T15:06:10;5.78;;;2.17;;
10761;SDS011;5433;50.862;4.320;2022-11-03T15:08:37;4.78;;;2.30;;
10761;SDS011;5433;50.862;4.320;2022-11-03T15:11:03;3.72;;;2.30;;
10761;SDS011;5433;50.862;4.320;2022-11-03T15:13:31;4.55;;;2.20;;
10761;SDS011;5433;50.862;4.320;2022-11-03T15:15:57;3.53;;;2.30;;
10761;SDS011;5433;50.862;4.320;2022-11-03T15:18:23;3.83;;;2.42;;
10761;SDS011;5433;50.862;4.320;2022-11-03T15:20:49;4.57;;;2.53;;
10761;SDS011;5433;50.862;4.320;2022-11-03T15:23:16;4.70;;;2.92;;
10761;SDS011;5433;50.862;4.320;2022-11-03T15:25:42;6.55;;;2.67;;
10761;SDS011;5433;50.862;4.320;2022-11-03T15:28:08;6.53;;;3.10;;
10761;SDS011;5433;50.862;4.320;2022-11-03T15:30:35;4.53;;;2.60;;
10761;SDS011;5433;50.862;4.320;2022-11-03T15:33:01;3.67;;;2.63;;
10761;SDS011;5433;50.862;4.320;2022-11-03T15:35:27;4.43;;;2.65;;
10761;SDS011;5433;50.862;4.320;2022-11-03T15:37:53;4.82;;;2.95;;
10761;SDS011;5433;50.862;4.320;2022-11-03T15:40:22;3.17;;;2.70;;
10761;SDS011;5433;50.862;4.320;2022-11-03T15:42:49;4.90;;;3.10;;
10761;SDS011;5433;50.862;4.320;2022-11-03T15:45:15;6.85;;;3.53;;
10761;SDS011;5433;50.862;4.320;2022-11-03T15:47:41;5.28;;;3.35;;
10761;SDS011;5433;50.862;4.320;2022-11-03T15:50:07;4.53;;;3.20;;
10761;SDS011;5433;50.862;4.320;2022-11-03T15:52:34;5.43;;;3.20;;
10761;SDS011;5433;50.862;4.320;2022-11-03T15:55:00;4.20;;;2.83;;
10761;SDS011;5433;50.862;4.320;2022-11-03T15:57:26;3.70;;;2.92;;
10761;SDS011;5433;50.862;4.320;2022-11-03T15:59:52;3.55;;;2.80;;
10761;SDS011;5433;50.862;4.320;2022-11-03T16:02:18;5.82;;;3.17;;